sensor_id;sensor_type;location;lat;lon;timestamp;temperature;humidity
49236;DHT22;35067;48.134;8.378;2023-05-10T00:00:17;10.80;99.90
49236;DHT22;35067;48.134;8.378;2023-05-10T00:01:18;10.80;99.90
49236;DHT22;35067;48.134;8.378;2023-05-10T00:02:19;10.50;99.90
49236;DHT22;35067;48.134;8.378;2023-05-10T00:03:19;10.90;99.90
49236;DHT22;35067;48.134;8.378;2023-05-10T00:04:20;10.70;99.90
49236;DHT22;35067;48.134;8.378;2023-05-10T00:05:21;10.40;99.90
49236;DHT22;35067;48.134;8.378;2023-05-10T00:07:23;10.90;99.90
49236;DHT22;35067;48.134;8.378;2023-05-10T00:08:24;10.50;99.90
49236;DHT22;35067;48.134;8.378;2023-05-10T00:09:25;10.20;99.90
49236;DHT22;35067;48.134;8.378;2023-05-10T00:10:26;10.60;99.90
49236;DHT22;35067;48.134;8.378;2023-05-10T00:11:27;10.40;99.90
49236;DHT22;35067;48.134;8.378;2023-05-10T00:12:28;10.80;99.90
49236;DHT22;35067;48.134;8.378;2023-05-10T00:13:28;10.10;99.90
49236;DHT22;35067;48.134;8.378;2023-05-10T00:14:29;10.70;99.90
49236;DHT22;35067;48.134;8.378;2023-05-10T00:15:30;10.40;99.90
49236;DHT22;35067;48.134;8.378;2023-05-10T00:16:31;10.50;99.90
49236;DHT22;35067;48.134;8.378;2023-05-10T00:17:31;10.50;99.90
49236;DHT22;35067;48.134;8.378;2023-05-10T00:18:32;10.60;99.90
49236;DHT22;35067;48.134;8.378;2023-05-10T00:19:33;10.30;99.90
49236;DHT22;35067;48.134;8.378;2023-05-10T00:20:34;10.40;99.90
49236;DHT22;35067;48.134;8.378;2023-05-10T00:21:35;10.00;99.90
49236;DHT22;35067;48.134;8.378;2023-05-10T00:22:35;10.50;99.90
49236;DHT22;35067;48.134;8.378;2023-05-10T00:23:36;10.50;99.90
49236;DHT22;35067;48.134;8.378;2023-05-10T00:24:37;10.60;99.90
49236;DHT22;35067;48.134;8.378;2023-05-10T00:25:38;10.70;99.90
49236;DHT22;35067;48.134;8.378;2023-05-10T00:26:39;10.80;99.90
49236;DHT22;35067;48.134;8.378;2023-05-10T00:27:40;11.10;99.90
49236;DHT22;35067;48.134;8.378;2023-05-10T00:28:40;11.00;99.90
49236;DHT22;35067;48.134;8.378;2023-05-10T00:29:41;11.00;99.90
49236;DHT22;35067;48.134;8.378;2023-05-10T00:30:42;10.90;99.90
49236;DHT22;35067;48.134;8.378;2023-05-10T00:31:42;10.70;99.90
49236;DHT22;35067;48.134;8.378;2023-05-10T00:32:44;10.80;99.90
49236;DHT22;35067;48.134;8.378;2023-05-10T00:33:45;10.70;99.90
49236;DHT22;35067;48.134;8.378;2023-05-10T00:34:46;10.80;99.90
49236;DHT22;35067;48.134;8.378;2023-05-10T00:35:46;10.50;99.90
49236;DHT22;35067;48.134;8.378;2023-05-10T00:36:47;10.40;99.90
49236;DHT22;35067;48.134;8.378;2023-05-10T00:37:48;10.80;99.90
49236;DHT22;35067;48.134;8.378;2023-05-10T00:38:49;10.40;99.90
49236;DHT22;35067;48.134;8.378;2023-05-10T00:39:50;10.40;99.90
49236;DHT22;35067;48.134;8.378;2023-05-10T00:40:51;10.60;99.90
49236;DHT22;35067;48.134;8.378;2023-05-10T00:41:51;10.20;99.90
49236;DHT22;35067;48.134;8.378;2023-05-10T00:42:52;12.50;99.90
49236;DHT22;35067;48.134;8.378;2023-05-10T00:43:53;10.30;99.90
49236;DHT22;35067;48.134;8.378;2023-05-10T00:44:54;10.30;99.90
49236;DHT22;35067;48.134;8.378;2023-05-10T00:45:56;10.40;99.90
49236;DHT22;35067;48.134;8.378;2023-05-10T00:46:57;10.40;99.90
49236;DHT22;35067;48.134;8.378;2023-05-10T00:48:00;10.40;99.90
49236;DHT22;35067;48.134;8.378;2023-05-10T00:49:02;10.40;99.90
49236;DHT22;35067;48.134;8.378;2023-05-10T00:50:04;10.30;99.90
49236;DHT22;35067;48.134;8.378;2023-05-10T00:51:05;10.30;99.90
49236;DHT22;35067;48.134;8.378;2023-05-10T00:52:06;9.90;99.90
49236;DHT22;35067;48.134;8.378;2023-05-10T00:53:07;10.30;99.90
49236;DHT22;35067;48.134;8.378;2023-05-10T00:54:14;10.30;99.90
49236;DHT22;35067;48.134;8.378;2023-05-10T00:55:16;10.30;99.90
49236;DHT22;35067;48.134;8.378;2023-05-10T00:56:17;10.40;99.90
49236;DHT22;35067;48.134;8.378;2023-05-10T00:57:18;10.50;99.90
49236;DHT22;35067;48.134;8.378;2023-05-10T00:58:19;10.30;99.90
49236;DHT22;35067;48.134;8.378;2023-05-10T00:59:20;10.20;99.90
49236;DHT22;35067;48.134;8.378;2023-05-10T01:00:21;10.20;99.90
49236;DHT22;35067;48.134;8.378;2023-05-10T01:01:22;10.30;99.90
49236;DHT22;35067;48.134;8.378;2023-05-10T01:02:23;10.30;99.90
49236;DHT22;35067;48.134;8.378;2023-05-10T01:03:25;10.20;99.90
49236;DHT22;35067;48.134;8.378;2023-05-10T01:04:26;10.30;99.90
49236;DHT22;35067;48.134;8.378;2023-05-10T01:05:29;10.30;99.90
49236;DHT22;35067;48.134;8.378;2023-05-10T01:06:29;10.40;99.90
49236;DHT22;35067;48.134;8.378;2023-05-10T01:07:30;10.50;99.90
49236;DHT22;35067;48.134;8.378;2023-05-10T01:08:31;10.50;99.90
49236;DHT22;35067;48.134;8.378;2023-05-10T01:09:33;10.60;99.90
49236;DHT22;35067;48.134;8.378;2023-05-10T01:10:35;11.00;99.90
49236;DHT22;35067;48.134;8.378;2023-05-10T01:11:38;10.60;99.90
49236;DHT22;35067;48.134;8.378;2023-05-10T01:12:41;10.80;99.90
49236;DHT22;35067;48.134;8.378;2023-05-10T01:13:50;10.80;99.90
49236;DHT22;35067;48.134;8.378;2023-05-10T01:14:54;10.90;99.90
49236;DHT22;35067;48.134;8.378;2023-05-10T01:15:55;11.10;99.90
49236;DHT22;35067;48.134;8.378;2023-05-10T01:16:56;11.00;99.90
49236;DHT22;35067;48.134;8.378;2023-05-10T01:17:57;11.00;99.90
49236;DHT22;35067;48.134;8.378;2023-05-10T01:18:58;10.80;99.90
49236;DHT22;35067;48.134;8.378;2023-05-10T01:19:59;11.00;99.90
49236;DHT22;35067;48.134;8.378;2023-05-10T01:21:22;10.70;99.90
49236;DHT22;35067;48.134;8.378;2023-05-10T01:26:48;10.70;99.90
49236;DHT22;35067;48.134;8.378;2023-05-10T01:31:59;10.90;99.90
49236;DHT22;35067;48.134;8.378;2023-05-10T01:34:27;10.80;99.90
49236;DHT22;35067;48.134;8.378;2023-05-10T01:39:49;10.80;99.90
49236;DHT22;35067;48.134;8.378;2023-05-10T01:42:20;11.10;99.90
49236;DHT22;35067;48.134;8.378;2023-05-10T01:43:26;10.80;99.90
49236;DHT22;35067;48.134;8.378;2023-05-10T01:44:42;10.90;99.90
49236;DHT22;35067;48.134;8.378;2023-05-10T01:48:47;11.00;99.90
49236;DHT22;35067;48.134;8.378;2023-05-10T01:49:54;11.20;99.90
49236;DHT22;35067;48.134;8.378;2023-05-10T01:50:58;11.40;99.90
49236;DHT22;35067;48.134;8.378;2023-05-10T01:52:06;11.20;99.90
49236;DHT22;35067;48.134;8.378;2023-05-10T01:53:11;11.10;99.90
49236;DHT22;35067;48.134;8.378;2023-05-10T01:54:14;11.10;99.90
49236;DHT22;35067;48.134;8.378;2023-05-10T01:55:19;11.00;99.90
49236;DHT22;35067;48.134;8.378;2023-05-10T01:56:24;11.00;99.90
49236;DHT22;35067;48.134;8.378;2023-05-10T01:57:33;11.30;99.90
49236;DHT22;35067;48.134;8.378;2023-05-10T01:58:36;11.00;99.90
49236;DHT22;35067;48.134;8.378;2023-05-10T01:59:43;11.10;99.90
49236;DHT22;35067;48.134;8.378;2023-05-10T02:00:46;11.40;99.90
49236;DHT22;35067;48.134;8.378;2023-05-10T02:01:49;11.20;99.90
49236;DHT22;35067;48.134;8.378;2023-05-10T02:02:51;11.30;99.90
49236;DHT22;35067;48.134;8.378;2023-05-10T02:03:53;11.10;99.90
49236;DHT22;35067;48.134;8.378;2023-05-10T02:04:57;11.20;99.90
49236;DHT22;35067;48.134;8.378;2023-05-10T02:05:59;11.40;99.90
49236;DHT22;35067;48.134;8.378;2023-05-10T02:07:00;11.00;99.90
49236;DHT22;35067;48.134;8.378;2023-05-10T02:08:01;11.10;99.90
49236;DHT22;35067;48.134;8.378;2023-05-10T02:09:07;11.10;99.90
49236;DHT22;35067;48.134;8.378;2023-05-10T02:10:09;11.10;99.90
49236;DHT22;35067;48.134;8.378;2023-05-10T02:11:13;11.10;99.90
49236;DHT22;35067;48.134;8.378;2023-05-10T02:12:15;10.90;99.90
49236;DHT22;35067;48.134;8.378;2023-05-10T02:13:18;11.20;99.90
49236;DHT22;35067;48.134;8.378;2023-05-10T02:14:19;11.00;99.90
49236;DHT22;35067;48.134;8.378;2023-05-10T02:15:23;11.00;99.90
49236;DHT22;35067;48.134;8.378;2023-05-10T02:16:26;10.90;99.90
49236;DHT22;35067;48.134;8.378;2023-05-10T02:17:28;11.00;99.90
49236;DHT22;35067;48.134;8.378;2023-05-10T02:18:33;10.90;99.90
49236;DHT22;35067;48.134;8.378;2023-05-10T02:19:41;11.00;99.90
49236;DHT22;35067;48.134;8.378;2023-05-10T02:20:46;11.10;99.90
49236;DHT22;35067;48.134;8.378;2023-05-10T02:21:47;10.90;99.90
49236;DHT22;35067;48.134;8.378;2023-05-10T02:22:51;11.10;99.90
49236;DHT22;35067;48.134;8.378;2023-05-10T02:23:54;11.00;99.90
49236;DHT22;35067;48.134;8.378;2023-05-10T02:24:58;11.20;99.90
49236;DHT22;35067;48.134;8.378;2023-05-10T02:26:00;11.00;99.90
49236;DHT22;35067;48.134;8.378;2023-05-10T02:27:03;11.00;99.90
49236;DHT22;35067;48.134;8.378;2023-05-10T02:28:06;11.10;99.90
49236;DHT22;35067;48.134;8.378;2023-05-10T02:29:08;11.40;99.90
49236;DHT22;35067;48.134;8.378;2023-05-10T02:30:10;11.10;99.90
49236;DHT22;35067;48.134;8.378;2023-05-10T02:31:12;11.10;99.90
49236;DHT22;35067;48.134;8.378;2023-05-10T02:32:15;11.10;99.90
49236;DHT22;35067;48.134;8.378;2023-05-10T02:33:17;11.10;99.90
49236;DHT22;35067;48.134;8.378;2023-05-10T02:34:20;11.10;99.90
49236;DHT22;35067;48.134;8.378;2023-05-10T02:35:22;11.10;99.90
49236;DHT22;35067;48.134;8.378;2023-05-10T02:36:24;11.30;99.90
49236;DHT22;35067;48.134;8.378;2023-05-10T02:37:28;11.20;99.90
49236;DHT22;35067;48.134;8.378;2023-05-10T02:38:31;11.30;99.90
49236;DHT22;35067;48.134;8.378;2023-05-10T02:39:33;11.20;99.90
49236;DHT22;35067;48.134;8.378;2023-05-10T02:40:35;11.20;99.90
49236;DHT22;35067;48.134;8.378;2023-05-10T02:41:40;11.10;99.90
49236;DHT22;35067;48.134;8.378;2023-05-10T02:42:43;11.10;99.90
49236;DHT22;35067;48.134;8.378;2023-05-10T02:43:45;11.00;99.90
49236;DHT22;35067;48.134;8.378;2023-05-10T02:44:48;11.10;99.90
49236;DHT22;35067;48.134;8.378;2023-05-10T02:45:51;11.10;99.90
49236;DHT22;35067;48.134;8.378;2023-05-10T02:46:52;10.90;99.90
49236;DHT22;35067;48.134;8.378;2023-05-10T02:47:52;10.80;99.90
49236;DHT22;35067;48.134;8.378;2023-05-10T02:48:53;11.00;99.90
49236;DHT22;35067;48.134;8.378;2023-05-10T02:49:54;10.90;99.90
49236;DHT22;35067;48.134;8.378;2023-05-10T02:51:00;10.80;99.90
49236;DHT22;35067;48.134;8.378;2023-05-10T02:52:05;10.90;99.90
49236;DHT22;35067;48.134;8.378;2023-05-10T02:53:11;11.00;99.90
49236;DHT22;35067;48.134;8.378;2023-05-10T02:54:19;11.00;99.90
49236;DHT22;35067;48.134;8.378;2023-05-10T02:55:26;11.00;99.90
49236;DHT22;35067;48.134;8.378;2023-05-10T02:56:34;10.90;99.90
49236;DHT22;35067;48.134;8.378;2023-05-10T02:57:41;10.90;99.90
49236;DHT22;35067;48.134;8.378;2023-05-10T02:58:46;11.00;99.90
49236;DHT22;35067;48.134;8.378;2023-05-10T02:59:47;11.30;99.90
49236;DHT22;35067;48.134;8.378;2023-05-10T03:00:49;10.90;99.90
49236;DHT22;35067;48.134;8.378;2023-05-10T03:01:50;10.90;99.90
49236;DHT22;35067;48.134;8.378;2023-05-10T03:02:51;11.10;99.90
49236;DHT22;35067;48.134;8.378;2023-05-10T03:03:52;10.90;99.90
49236;DHT22;35067;48.134;8.378;2023-05-10T03:04:54;10.80;99.90
49236;DHT22;35067;48.134;8.378;2023-05-10T03:05:56;10.80;99.90
49236;DHT22;35067;48.134;8.378;2023-05-10T03:06:58;10.70;99.90
49236;DHT22;35067;48.134;8.378;2023-05-10T03:07:59;10.80;99.90
49236;DHT22;35067;48.134;8.378;2023-05-10T03:09:03;10.80;99.90
49236;DHT22;35067;48.134;8.378;2023-05-10T03:10:05;11.00;99.90
49236;DHT22;35067;48.134;8.378;2023-05-10T03:11:24;11.00;99.90
49236;DHT22;35067;48.134;8.378;2023-05-10T03:17:29;10.70;99.90
49236;DHT22;35067;48.134;8.378;2023-05-10T03:18:58;10.60;99.90
49236;DHT22;35067;48.134;8.378;2023-05-10T03:20:15;10.30;99.90
49236;DHT22;35067;48.134;8.378;2023-05-10T03:21:22;10.80;99.90
49236;DHT22;35067;48.134;8.378;2023-05-10T03:22:31;10.40;99.90
49236;DHT22;35067;48.134;8.378;2023-05-10T03:23:55;10.50;99.90
49236;DHT22;35067;48.134;8.378;2023-05-10T03:25:08;10.60;99.90
49236;DHT22;35067;48.134;8.378;2023-05-10T03:26:23;10.80;99.90
49236;DHT22;35067;48.134;8.378;2023-05-10T03:27:28;10.50;99.90
49236;DHT22;35067;48.134;8.378;2023-05-10T03:28:31;10.50;99.90
49236;DHT22;35067;48.134;8.378;2023-05-10T03:29:35;10.40;99.90
49236;DHT22;35067;48.134;8.378;2023-05-10T03:30:37;10.40;99.90
49236;DHT22;35067;48.134;8.378;2023-05-10T03:31:39;10.40;99.90
49236;DHT22;35067;48.134;8.378;2023-05-10T03:32:40;10.50;99.90
49236;DHT22;35067;48.134;8.378;2023-05-10T03:33:50;10.50;99.90
49236;DHT22;35067;48.134;8.378;2023-05-10T03:34:53;10.50;99.90
49236;DHT22;35067;48.134;8.378;2023-05-10T03:35:54;10.90;99.90
49236;DHT22;35067;48.134;8.378;2023-05-10T03:36:55;10.20;99.90
49236;DHT22;35067;48.134;8.378;2023-05-10T03:37:55;10.70;99.90
49236;DHT22;35067;48.134;8.378;2023-05-10T03:38:56;10.70;99.90
49236;DHT22;35067;48.134;8.378;2023-05-10T03:39:57;10.30;99.90
49236;DHT22;35067;48.134;8.378;2023-05-10T03:40:57;10.20;99.90
49236;DHT22;35067;48.134;8.378;2023-05-10T03:41:58;10.60;99.90
49236;DHT22;35067;48.134;8.378;2023-05-10T03:42:59;10.20;99.90
49236;DHT22;35067;48.134;8.378;2023-05-10T03:44:00;10.80;99.90
49236;DHT22;35067;48.134;8.378;2023-05-10T03:45:02;10.50;99.90
49236;DHT22;35067;48.134;8.378;2023-05-10T03:46:04;10.80;99.90
49236;DHT22;35067;48.134;8.378;2023-05-10T03:47:05;10.10;99.90
49236;DHT22;35067;48.134;8.378;2023-05-10T03:48:06;10.40;99.90
49236;DHT22;35067;48.134;8.378;2023-05-10T03:49:06;10.50;99.90
49236;DHT22;35067;48.134;8.378;2023-05-10T03:50:07;10.50;99.90
49236;DHT22;35067;48.134;8.378;2023-05-10T03:51:08;10.50;99.90
49236;DHT22;35067;48.134;8.378;2023-05-10T03:52:09;10.70;99.90
49236;DHT22;35067;48.134;8.378;2023-05-10T03:53:10;10.50;99.90
49236;DHT22;35067;48.134;8.378;2023-05-10T03:54:10;10.70;99.90
49236;DHT22;35067;48.134;8.378;2023-05-10T03:55:11;10.50;99.90
49236;DHT22;35067;48.134;8.378;2023-05-10T03:56:12;10.60;99.90
49236;DHT22;35067;48.134;8.378;2023-05-10T03:57:12;10.80;99.90
49236;DHT22;35067;48.134;8.378;2023-05-10T03:58:13;10.70;99.90
49236;DHT22;35067;48.134;8.378;2023-05-10T03:59:14;10.80;99.90
49236;DHT22;35067;48.134;8.378;2023-05-10T04:00:15;11.30;99.90
49236;DHT22;35067;48.134;8.378;2023-05-10T04:01:16;10.90;99.90
49236;DHT22;35067;48.134;8.378;2023-05-10T04:02:17;10.90;99.90
49236;DHT22;35067;48.134;8.378;2023-05-10T04:03:17;10.90;99.90
49236;DHT22;35067;48.134;8.378;2023-05-10T04:04:18;11.00;99.90
49236;DHT22;35067;48.134;8.378;2023-05-10T04:05:21;10.90;99.90
49236;DHT22;35067;48.134;8.378;2023-05-10T04:06:22;11.00;99.90
49236;DHT22;35067;48.134;8.378;2023-05-10T04:07:22;10.90;99.90
49236;DHT22;35067;48.134;8.378;2023-05-10T04:08:23;11.40;99.90
49236;DHT22;35067;48.134;8.378;2023-05-10T04:09:24;10.90;99.90
49236;DHT22;35067;48.134;8.378;2023-05-10T04:10:25;10.90;99.90
49236;DHT22;35067;48.134;8.378;2023-05-10T04:11:26;11.20;99.90
49236;DHT22;35067;48.134;8.378;2023-05-10T04:12:27;10.80;99.90
49236;DHT22;35067;48.134;8.378;2023-05-10T04:13:28;10.80;99.90
49236;DHT22;35067;48.134;8.378;2023-05-10T04:14:29;11.00;99.90
49236;DHT22;35067;48.134;8.378;2023-05-10T04:15:30;10.80;99.90
49236;DHT22;35067;48.134;8.378;2023-05-10T04:16:31;10.80;99.90
49236;DHT22;35067;48.134;8.378;2023-05-10T04:17:32;10.80;99.90
49236;DHT22;35067;48.134;8.378;2023-05-10T04:18:33;10.80;99.90
49236;DHT22;35067;48.134;8.378;2023-05-10T04:19:34;10.90;99.90
49236;DHT22;35067;48.134;8.378;2023-05-10T04:20:35;10.90;99.90
49236;DHT22;35067;48.134;8.378;2023-05-10T04:21:36;10.90;99.90
49236;DHT22;35067;48.134;8.378;2023-05-10T04:22:37;10.80;99.90
49236;DHT22;35067;48.134;8.378;2023-05-10T04:23:38;11.00;99.90
49236;DHT22;35067;48.134;8.378;2023-05-10T04:24:38;11.00;99.90
49236;DHT22;35067;48.134;8.378;2023-05-10T04:25:39;11.10;99.90
49236;DHT22;35067;48.134;8.378;2023-05-10T04:26:40;11.00;99.90
49236;DHT22;35067;48.134;8.378;2023-05-10T04:27:42;11.30;99.90
49236;DHT22;35067;48.134;8.378;2023-05-10T04:28:43;11.00;99.90
49236;DHT22;35067;48.134;8.378;2023-05-10T04:29:43;11.00;99.90
49236;DHT22;35067;48.134;8.378;2023-05-10T04:30:45;11.30;99.90
49236;DHT22;35067;48.134;8.378;2023-05-10T04:31:47;11.00;99.90
49236;DHT22;35067;48.134;8.378;2023-05-10T04:32:49;10.90;99.90
49236;DHT22;35067;48.134;8.378;2023-05-10T04:33:49;11.00;99.90
49236;DHT22;35067;48.134;8.378;2023-05-10T04:34:50;10.90;99.90
49236;DHT22;35067;48.134;8.378;2023-05-10T04:35:51;11.10;99.90
49236;DHT22;35067;48.134;8.378;2023-05-10T04:36:53;10.90;99.90
49236;DHT22;35067;48.134;8.378;2023-05-10T04:37:54;10.90;99.90
49236;DHT22;35067;48.134;8.378;2023-05-10T04:38:55;11.00;99.90
49236;DHT22;35067;48.134;8.378;2023-05-10T04:39:56;11.10;99.90
49236;DHT22;35067;48.134;8.378;2023-05-10T04:41:10;10.80;99.90
49236;DHT22;35067;48.134;8.378;2023-05-10T04:42:11;10.80;99.90
49236;DHT22;35067;48.134;8.378;2023-05-10T04:43:12;11.30;99.90
49236;DHT22;35067;48.134;8.378;2023-05-10T04:44:13;10.80;99.90
49236;DHT22;35067;48.134;8.378;2023-05-10T04:45:14;10.50;99.90
49236;DHT22;35067;48.134;8.378;2023-05-10T04:46:15;10.50;99.90
49236;DHT22;35067;48.134;8.378;2023-05-10T04:47:16;10.40;99.90
49236;DHT22;35067;48.134;8.378;2023-05-10T04:48:16;10.40;99.90
49236;DHT22;35067;48.134;8.378;2023-05-10T04:49:17;10.30;99.90
49236;DHT22;35067;48.134;8.378;2023-05-10T04:50:18;10.20;99.90
49236;DHT22;35067;48.134;8.378;2023-05-10T04:51:19;10.20;99.90
49236;DHT22;35067;48.134;8.378;2023-05-10T04:52:20;10.50;99.90
49236;DHT22;35067;48.134;8.378;2023-05-10T04:53:21;10.40;99.90
49236;DHT22;35067;48.134;8.378;2023-05-10T04:54:22;10.30;99.90
49236;DHT22;35067;48.134;8.378;2023-05-10T04:55:23;10.40;99.90
49236;DHT22;35067;48.134;8.378;2023-05-10T04:56:23;10.50;99.90
49236;DHT22;35067;48.134;8.378;2023-05-10T04:57:24;10.50;99.90
49236;DHT22;35067;48.134;8.378;2023-05-10T04:58:25;10.50;99.90
49236;DHT22;35067;48.134;8.378;2023-05-10T04:59:27;10.60;99.90
49236;DHT22;35067;48.134;8.378;2023-05-10T05:00:28;10.80;99.90
49236;DHT22;35067;48.134;8.378;2023-05-10T05:01:28;10.60;99.90
49236;DHT22;35067;48.134;8.378;2023-05-10T05:02:29;10.50;99.90
49236;DHT22;35067;48.134;8.378;2023-05-10T05:03:31;10.10;99.90
49236;DHT22;35067;48.134;8.378;2023-05-10T05:04:32;10.50;99.90
49236;DHT22;35067;48.134;8.378;2023-05-10T05:05:32;10.60;99.90
49236;DHT22;35067;48.134;8.378;2023-05-10T05:06:35;10.60;99.90
49236;DHT22;35067;48.134;8.378;2023-05-10T05:07:35;10.70;99.90
49236;DHT22;35067;48.134;8.378;2023-05-10T05:08:36;10.70;99.90
49236;DHT22;35067;48.134;8.378;2023-05-10T05:09:37;10.80;99.90
49236;DHT22;35067;48.134;8.378;2023-05-10T05:10:37;10.90;99.90
49236;DHT22;35067;48.134;8.378;2023-05-10T05:11:38;11.00;99.90
49236;DHT22;35067;48.134;8.378;2023-05-10T05:12:41;11.10;99.90
49236;DHT22;35067;48.134;8.378;2023-05-10T05:13:41;11.20;99.90
49236;DHT22;35067;48.134;8.378;2023-05-10T05:14:42;11.30;99.90
49236;DHT22;35067;48.134;8.378;2023-05-10T05:15:43;11.70;99.90
49236;DHT22;35067;48.134;8.378;2023-05-10T05:16:44;11.20;99.90
49236;DHT22;35067;48.134;8.378;2023-05-10T05:17:44;11.20;99.90
49236;DHT22;35067;48.134;8.378;2023-05-10T05:18:45;11.30;99.90
49236;DHT22;35067;48.134;8.378;2023-05-10T05:19:46;11.30;99.90
49236;DHT22;35067;48.134;8.378;2023-05-10T05:20:47;11.30;99.90
49236;DHT22;35067;48.134;8.378;2023-05-10T05:21:48;11.50;99.90
49236;DHT22;35067;48.134;8.378;2023-05-10T05:22:48;11.40;99.90
49236;DHT22;35067;48.134;8.378;2023-05-10T05:23:50;11.50;99.90
49236;DHT22;35067;48.134;8.378;2023-05-10T05:24:50;11.50;99.90
49236;DHT22;35067;48.134;8.378;2023-05-10T05:25:52;11.50;99.90
49236;DHT22;35067;48.134;8.378;2023-05-10T05:26:53;11.60;99.90
49236;DHT22;35067;48.134;8.378;2023-05-10T05:27:54;11.60;99.90
49236;DHT22;35067;48.134;8.378;2023-05-10T05:28:55;11.70;99.90
49236;DHT22;35067;48.134;8.378;2023-05-10T05:29:57;11.70;99.90
49236;DHT22;35067;48.134;8.378;2023-05-10T05:30:58;11.70;99.90
49236;DHT22;35067;48.134;8.378;2023-05-10T05:32:00;11.60;99.90
49236;DHT22;35067;48.134;8.378;2023-05-10T05:33:00;11.60;99.90
49236;DHT22;35067;48.134;8.378;2023-05-10T05:34:01;11.60;99.90
49236;DHT22;35067;48.134;8.378;2023-05-10T05:35:02;11.50;99.90
49236;DHT22;35067;48.134;8.378;2023-05-10T05:36:04;11.40;99.90
49236;DHT22;35067;48.134;8.378;2023-05-10T05:37:06;11.40;99.90
49236;DHT22;35067;48.134;8.378;2023-05-10T05:38:06;11.40;99.90
49236;DHT22;35067;48.134;8.378;2023-05-10T05:39:07;11.40;99.90
49236;DHT22;35067;48.134;8.378;2023-05-10T05:40:08;11.50;99.90
49236;DHT22;35067;48.134;8.378;2023-05-10T05:41:13;11.60;99.90
49236;DHT22;35067;48.134;8.378;2023-05-10T05:42:14;11.80;99.90
49236;DHT22;35067;48.134;8.378;2023-05-10T05:43:16;11.90;99.90
49236;DHT22;35067;48.134;8.378;2023-05-10T05:44:17;11.80;99.90
49236;DHT22;35067;48.134;8.378;2023-05-10T05:45:18;11.60;99.90
49236;DHT22;35067;48.134;8.378;2023-05-10T05:46:19;11.70;99.90
49236;DHT22;35067;48.134;8.378;2023-05-10T05:47:20;11.90;99.90
49236;DHT22;35067;48.134;8.378;2023-05-10T05:48:21;11.80;99.90
49236;DHT22;35067;48.134;8.378;2023-05-10T05:49:21;11.90;99.90
49236;DHT22;35067;48.134;8.378;2023-05-10T05:50:22;11.90;99.90
49236;DHT22;35067;48.134;8.378;2023-05-10T05:51:23;12.00;99.90
49236;DHT22;35067;48.134;8.378;2023-05-10T05:52:24;12.10;99.90
49236;DHT22;35067;48.134;8.378;2023-05-10T05:53:26;11.90;99.90
49236;DHT22;35067;48.134;8.378;2023-05-10T05:54:27;11.90;99.90
49236;DHT22;35067;48.134;8.378;2023-05-10T05:55:29;11.80;99.90
49236;DHT22;35067;48.134;8.378;2023-05-10T05:56:31;11.70;99.90
49236;DHT22;35067;48.134;8.378;2023-05-10T05:57:32;11.80;99.90
49236;DHT22;35067;48.134;8.378;2023-05-10T05:58:34;11.80;99.90
49236;DHT22;35067;48.134;8.378;2023-05-10T05:59:34;11.70;99.90
49236;DHT22;35067;48.134;8.378;2023-05-10T06:00:35;11.80;99.90
49236;DHT22;35067;48.134;8.378;2023-05-10T06:01:36;11.80;99.90
49236;DHT22;35067;48.134;8.378;2023-05-10T06:02:36;11.80;99.90
49236;DHT22;35067;48.134;8.378;2023-05-10T06:03:37;11.90;99.90
49236;DHT22;35067;48.134;8.378;2023-05-10T06:04:38;11.90;99.90
49236;DHT22;35067;48.134;8.378;2023-05-10T06:05:39;11.80;99.90
49236;DHT22;35067;48.134;8.378;2023-05-10T06:06:39;11.80;99.90
49236;DHT22;35067;48.134;8.378;2023-05-10T06:07:40;11.70;99.90
49236;DHT22;35067;48.134;8.378;2023-05-10T06:08:44;11.90;99.90
49236;DHT22;35067;48.134;8.378;2023-05-10T06:09:44;12.00;99.90
49236;DHT22;35067;48.134;8.378;2023-05-10T06:10:45;12.10;99.90
49236;DHT22;35067;48.134;8.378;2023-05-10T06:11:46;12.20;99.90
49236;DHT22;35067;48.134;8.378;2023-05-10T06:12:47;12.20;99.90
49236;DHT22;35067;48.134;8.378;2023-05-10T06:13:49;12.30;99.90
49236;DHT22;35067;48.134;8.378;2023-05-10T06:14:50;12.30;99.90
49236;DHT22;35067;48.134;8.378;2023-05-10T06:16:52;12.30;99.90
49236;DHT22;35067;48.134;8.378;2023-05-10T06:17:53;12.20;99.90
49236;DHT22;35067;48.134;8.378;2023-05-10T06:18:54;12.30;99.90
49236;DHT22;35067;48.134;8.378;2023-05-10T06:19:55;11.90;99.90
49236;DHT22;35067;48.134;8.378;2023-05-10T06:20:56;12.40;99.90
49236;DHT22;35067;48.134;8.378;2023-05-10T06:21:57;12.10;99.90
49236;DHT22;35067;48.134;8.378;2023-05-10T06:22:58;12.10;99.90
49236;DHT22;35067;48.134;8.378;2023-05-10T06:23:59;12.10;99.90
49236;DHT22;35067;48.134;8.378;2023-05-10T06:25:00;12.10;99.90
49236;DHT22;35067;48.134;8.378;2023-05-10T06:26:02;12.30;99.90
49236;DHT22;35067;48.134;8.378;2023-05-10T06:27:05;12.10;99.90
49236;DHT22;35067;48.134;8.378;2023-05-10T06:28:06;12.10;99.90
49236;DHT22;35067;48.134;8.378;2023-05-10T06:29:07;12.40;99.90
49236;DHT22;35067;48.134;8.378;2023-05-10T06:30:08;12.10;99.90
49236;DHT22;35067;48.134;8.378;2023-05-10T06:31:09;12.00;99.90
49236;DHT22;35067;48.134;8.378;2023-05-10T06:32:11;11.70;99.90
49236;DHT22;35067;48.134;8.378;2023-05-10T06:33:12;12.30;99.90
49236;DHT22;35067;48.134;8.378;2023-05-10T06:34:13;12.20;99.90
49236;DHT22;35067;48.134;8.378;2023-05-10T06:35:14;12.20;99.90
49236;DHT22;35067;48.134;8.378;2023-05-10T06:36:14;12.20;99.90
49236;DHT22;35067;48.134;8.378;2023-05-10T06:37:15;12.30;99.90
49236;DHT22;35067;48.134;8.378;2023-05-10T06:38:16;12.30;99.90
49236;DHT22;35067;48.134;8.378;2023-05-10T06:39:17;12.30;99.90
49236;DHT22;35067;48.134;8.378;2023-05-10T06:40:18;12.30;99.90
49236;DHT22;35067;48.134;8.378;2023-05-10T06:41:19;12.30;99.90
49236;DHT22;35067;48.134;8.378;2023-05-10T06:42:20;12.60;99.90
49236;DHT22;35067;48.134;8.378;2023-05-10T06:43:21;12.30;99.90
49236;DHT22;35067;48.134;8.378;2023-05-10T06:44:22;12.30;99.90
49236;DHT22;35067;48.134;8.378;2023-05-10T06:45:23;12.20;99.90
49236;DHT22;35067;48.134;8.378;2023-05-10T06:46:23;12.10;99.90
49236;DHT22;35067;48.134;8.378;2023-05-10T06:47:24;12.00;99.90
49236;DHT22;35067;48.134;8.378;2023-05-10T06:48:25;12.10;99.90
49236;DHT22;35067;48.134;8.378;2023-05-10T06:49:26;12.00;99.90
49236;DHT22;35067;48.134;8.378;2023-05-10T06:50:27;11.70;99.90
49236;DHT22;35067;48.134;8.378;2023-05-10T06:51:28;11.50;99.90
49236;DHT22;35067;48.134;8.378;2023-05-10T06:52:28;11.70;99.90
49236;DHT22;35067;48.134;8.378;2023-05-10T06:53:29;11.50;99.90
49236;DHT22;35067;48.134;8.378;2023-05-10T06:54:30;11.50;99.90
49236;DHT22;35067;48.134;8.378;2023-05-10T06:55:31;11.90;99.90
49236;DHT22;35067;48.134;8.378;2023-05-10T06:56:32;11.40;99.90
49236;DHT22;35067;48.134;8.378;2023-05-10T06:57:33;11.30;99.90